Logo AVAMET
Benvolgut visitant, si us plau, ingressa Recuperar contrasenya
AVAMET paisatges

Salem

Dades diàries. Acumulats / Últims 30 dies disponibles

Data Temperatura (°C) Humitat rel. (%) Pressió rel. (hPa) Vent (km/h) Precipitació
Mínima Mitjana Màxima Amplitud
tèrmica
Mínima Mitjana Màxima Mínima Mitjana Màxima Predom. Mitjana Ràfega
màxima
Total
(mm)
Índex-n
Mínima Mitjana Màxima Mínima Mitjana Màxima n
0 a 1
P0 max
mm 5'
Dades mensuals acumulades fins l'últim dia disponible
10/2020 10,9 13,7 16,7 18,9 20,2 24,2 29,8 18,9 25 50 84 992 1.008 1.021   6,3 62,8 9,2
Dades anuals acumulades fins l'últim dia disponible
2020 2,2 14,3 23,4 18,6 7,7 23,7 41,4 39,2 13 69 98 992 1.018 1.035   3,9 90,1 824,0
Últims 30 dies disponibles
05-10-2020 15,0     18,2     23,0 8,0 35 49 60 1.013 1.016 1.021 W 2,7 24,1 0,0
04-10-2020 14,5     17,6     22,4 7,9 42 52 61 1.008 1.010 1.012 WSW 8,2 40,2 0,0
03-10-2020 11,2     15,4     20,2 9,0 38 51 64 1.002 1.006 1.011 W 6,9 33,8 0,0
02-10-2020 10,9     19,2     25,6 14,7 45 57 84 992 998 1.006 W 9,7 62,8 9,2
01-10-2020 16,7     23,9     29,8 13,1 25 44 83 1.006 1.009 1.013 W 4,0 29,0 0,0
30-09-2020 15,1     19,9     25,9 10,8 50 72 84 1.013 1.015 1.018 ENE 0,8 16,1 0,0
29-09-2020 13,5     18,3     23,9 10,4 61 73 84 1.016 1.018 1.020 ESE 2,6 24,1 0,0
28-09-2020 12,4     18,4     24,9 12,5 29 55 72 1.014 1.016 1.018 ESE 2,4 29,0 0,0
27-09-2020 15,6     19,9     23,4 7,8 32 49 64 1.010 1.011 1.015 ENE 5,0 32,2 0,0
26-09-2020 14,3     18,9     24,2 9,9 33 41 49 1.012 1.016 1.020 WNW 4,2 27,4 0,0
25-09-2020 18,1     21,1     24,1 6,0 28 47 67 1.013 1.016 1.020 WNW 9,2 49,9 0,6
24-09-2020 22,0     25,1     29,2 7,2 41 52 62 1.012 1.013 1.014 W 6,9 40,2 0,0
23-09-2020 21,2     24,9     30,5 9,3 35 52 63 1.010 1.012 1.013 WSW 2,4 25,7 0,0
22-09-2020 18,1     23,1     29,9 11,8 33 61 85 1.011 1.014 1.016 SE 2,9 32,2 0,0
21-09-2020 19,7     23,1     27,8 8,1 44 58 71 1.014 1.016 1.017 ESE 3,2 29,0 0,0
20-09-2020 20,5     23,5     27,3 6,8 44 56 64 1.015 1.016 1.017 W 4,5 24,1 0,0
19-09-2020 17,0     22,4     28,2 11,2 40 64 86 1.014 1.015 1.017 WNW 3,5 33,8 0,0
18-09-2020 17,4     21,4     25,3 7,9 59 75 88 1.013 1.015 1.017 SSW 8,2 49,9 5,2
17-09-2020 20,6     23,8     30,3 9,7 36 69 88 1.013 1.016 1.018 S 2,6 22,5 0,0
16-09-2020 19,5     24,6     30,2 10,7 37 70 87 1.015 1.018 1.020 ENE 3,5 33,8 0,0
15-09-2020 19,0     23,8     28,7 9,7 55 75 89 1.018 1.020 1.023 E 3,7 30,6 0,2
14-09-2020 18,8     22,9     27,9 9,1 63 71 82 1.020 1.022 1.023 E 5,6 37,0 0,0
13-09-2020 18,5     23,6     29,4 10,9 44 67 86 1.021 1.022 1.023 E 4,5 32,2 0,0
12-09-2020 20,7     24,6     30,1 9,4 49 68 85 1.016 1.017 1.021 E 4,3 30,6 0,0
11-09-2020 17,9     24,3     31,2 13,3 37 59 79 1.012 1.014 1.017 SE 3,7 32,2 0,0
10-09-2020 17,3     21,9     27,7 10,4 52 67 78 1.015 1.018 1.020 ESE 2,4 20,9 0,0
09-09-2020 15,7     20,3     25,6 9,9 59 71 85 1.019 1.021 1.022 ENE 2,4 22,5 0,0
08-09-2020 16,0     18,9     23,1 7,1 48 75 91 1.021 1.022 1.024 ENE 2,1 27,4 9,6
07-09-2020 17,9     20,1     22,1 4,2 70 80 86 1.014 1.017 1.021 ENE 3,9 40,2 0,0
06-09-2020 17,9     22,7     28,3 10,4 57 74 87 1.014 1.016 1.019 ENE 4,2 25,7 0,0
Últims 13 mesos disponibles
09/2020 12,4 17,8 22,0 22,1 22,1 27,2 31,2 18,8 41 65 80 1.011 1.017 1.023 ENE 4,0 49,9 16,2
08/2020 15,2 21,4 23,4 26,3 24,9 32,4 41,4 26,2 34 66 80 1.003 1.013 1.018 SSE 4,0 53,1 5,0
07/2020 17,6 20,8 22,9 25,5 27,5 31,2 39,1 21,5 54 70 78 1.013 1.016 1.020 ENE 4,2 48,3 5,4
06/2020 13,4 17,3 21,1 22,7 20,7 28,7 32,9 19,5 43 66 83 1.005 1.014 1.020 SSE 4,6 54,7 29,8
05/2020 11,1 15,2 19,2 19,9 16,4 25,5 31,7 20,6 49 68 89 1.005 1.017 1.026 ENE 3,9 41,8 133,2
04/2020 7,7 11,0 16,3 14,2 14,2 18,4 24,2 16,5 49 77 95 1.006 1.016 1.025 ENE 3,9 43,5 67,6
03/2020 4,3 9,3 15,2 12,7 7,8 16,7 26,9 22,6 44 73 94 1.008 1.017 1.027 S 4,4 90,1 128,0
02/2020 4,6 10,0 14,9 14,5 12,6 20,0 24,8 20,2 34 66 92 1.014 1.025 1.033 SE 2,7 40,2 17,6
01/2020 2,2 6,8 13,7 10,2 7,7 14,3 18,8 16,6 47 75 96 1.015 1.025 1.032 ESE 3,3 64,4 412,0
12/2019 5,1 9,6 17,1 12,7 10,5 16,5 23,5 18,4 45 70 94 1.003 1.019 1.033 W 4,7 88,5 209,4
11/2019 4,6 10,7 19,3 13,7 12,6 17,1 24,3 19,7 52 62 79 1.000 1.011 1.019 W 7,0 59,5 26,8
10/2019 10,4 15,3 18,6 19,2 13,9 24,1 31,8 21,4 43 68 90 1.008 1.016 1.022 ESE 2,8 45,1 53,0
09/2019 12,6 18,5 22,1 22,3 18,0 26,6 33,2 20,6 46 76 95 1.010 1.017 1.024 ENE 3,8 72,4 337,8
Tots els anys disponibles
2019 0,2 13,3 25,2 17,6 9,6 22,6 40,2 40,0 31 65 95 995 1.017 1.033 ENE 4,7 88,5 1.157,2
2018 0,7 13,3 24,8 17,4 5,0 22,3 36,9 36,2 32 70 96 1.000 1.018 1.031 ENE 4,9 85,3 705,0
Temperatura (°C)
Humitat relativa (%)
Velocitat del vent i ràfega màxima (km/h)
Direcció del vent (°)
Pressió (hPa)
Precipitació (mm)
Nota sobre les dades: s'avisa a l'usuari de la provisionalitat i no oficialitat d'aquestes dades
Logo AVAMET blanc
Web allotjada a Sollutia
Llicència de Creative CommonsLa web d'AVAMET i els seus continguts estan subjectes a una llicència de
Reconeixement - No Comercial - Compartir igual
Avís legal - Política de privacitat - Política de cookies
NOVES ESTACIONS: El Fondó dels Frares (Estació pròpia d'AVAMET nº34), Onda - Raval de St. Josep (Soci), Agres - Foia Ampla de Mariola (Socis), Beniarjó (Inforatge), Sueca - Mareny de Barraquetes (Inforatge), La Vilavella - Centre (Ajuntament Soci), Alfondeguilla (Soci), Santa Magdalena de Polpís (Soci), Benafigos (Ajuntament Soci) - - -